KCNW

Tstc Waco Airport

Waco, Texas, USA
METAR KCNW 220355Z 15004KT 10SM SKC 22/20 A2997
Observed Flight Rules
May-22 @ 03:55 UTC (6 hours ago) Visual Flight Rules
Wind Visibility Clouds
150° at 4 knots 10 miles
  • Clear skies
Temperatures Readings
Current 22°C / 72°F
Dewpoint 20°C / 68°F
Humidity 88%
Altimeter 29.97" Hg
Pressure 1015 hPa
Elevation 156
METAR KCNW 220355Z 15004KT 10SM SKC 22/20 A2997
Observed Flight Rules
May-22 @ 03:55 UTC
(6 hours ago)
VFR
Wind Visibility
150° at 4 knots 10 miles
Clouds
  • Clear skies
Temperature Dewpoint
22°C / 72°F 20°C / 68°F
Humidity Altimeter Pressure
88% 29.97" Hg 1015 hPa